sensor_id;sensor_type;location;lat;lon;timestamp;temperature;humidity
20929;DHT22;21895;47.072;15.132;2022-11-25T00:01:20;1.80;99.90
20929;DHT22;21895;47.072;15.132;2022-11-25T00:03:49;1.90;99.90
20929;DHT22;21895;47.072;15.132;2022-11-25T00:06:21;1.70;99.90
20929;DHT22;21895;47.072;15.132;2022-11-25T00:09:00;1.70;99.90
20929;DHT22;21895;47.072;15.132;2022-11-25T00:11:37;1.70;99.90
20929;DHT22;21895;47.072;15.132;2022-11-25T00:14:06;1.60;99.90
20929;DHT22;21895;47.072;15.132;2022-11-25T00:16:35;1.70;99.90
20929;DHT22;21895;47.072;15.132;2022-11-25T00:19:01;1.80;99.90
20929;DHT22;21895;47.072;15.132;2022-11-25T00:21:31;1.70;99.90
20929;DHT22;21895;47.072;15.132;2022-11-25T00:24:01;1.80;99.90
20929;DHT22;21895;47.072;15.132;2022-11-25T00:26:33;2.00;99.90
20929;DHT22;21895;47.072;15.132;2022-11-25T00:29:03;1.80;99.90
20929;DHT22;21895;47.072;15.132;2022-11-25T00:31:33;1.60;99.90
20929;DHT22;21895;47.072;15.132;2022-11-25T00:34:01;1.60;99.90
20929;DHT22;21895;47.072;15.132;2022-11-25T00:36:30;1.40;99.90
20929;DHT22;21895;47.072;15.132;2022-11-25T00:39:05;1.30;99.90
20929;DHT22;21895;47.072;15.132;2022-11-25T00:41:35;1.40;99.90
20929;DHT22;21895;47.072;15.132;2022-11-25T00:44:20;1.60;99.90
20929;DHT22;21895;47.072;15.132;2022-11-25T00:47:15;1.80;99.90
20929;DHT22;21895;47.072;15.132;2022-11-25T00:49:45;1.90;99.90
20929;DHT22;21895;47.072;15.132;2022-11-25T00:52:15;1.80;99.90
20929;DHT22;21895;47.072;15.132;2022-11-25T00:54:45;1.90;99.90
20929;DHT22;21895;47.072;15.132;2022-11-25T00:57:13;1.90;99.90
20929;DHT22;21895;47.072;15.132;2022-11-25T00:59:40;1.70;99.90
20929;DHT22;21895;47.072;15.132;2022-11-25T01:02:08;1.80;99.90
20929;DHT22;21895;47.072;15.132;2022-11-25T01:04:36;1.70;99.90
20929;DHT22;21895;47.072;15.132;2022-11-25T01:07:03;1.80;99.90
20929;DHT22;21895;47.072;15.132;2022-11-25T01:09:30;1.80;99.90
20929;DHT22;21895;47.072;15.132;2022-11-25T01:11:57;1.80;99.90
20929;DHT22;21895;47.072;15.132;2022-11-25T01:14:24;1.50;99.90
20929;DHT22;21895;47.072;15.132;2022-11-25T01:16:51;1.40;99.90
20929;DHT22;21895;47.072;15.132;2022-11-25T01:19:18;1.20;99.90
20929;DHT22;21895;47.072;15.132;2022-11-25T01:21:44;1.20;99.90
20929;DHT22;21895;47.072;15.132;2022-11-25T01:24:13;1.30;99.90
20929;DHT22;21895;47.072;15.132;2022-11-25T01:26:41;1.30;99.90
20929;DHT22;21895;47.072;15.132;2022-11-25T01:29:13;1.30;99.90
20929;DHT22;21895;47.072;15.132;2022-11-25T01:31:42;1.60;99.90
20929;DHT22;21895;47.072;15.132;2022-11-25T01:34:15;1.60;99.90
20929;DHT22;21895;47.072;15.132;2022-11-25T01:36:44;1.30;99.90
20929;DHT22;21895;47.072;15.132;2022-11-25T01:39:16;1.10;99.90
20929;DHT22;21895;47.072;15.132;2022-11-25T01:41:44;1.00;99.90
20929;DHT22;21895;47.072;15.132;2022-11-25T01:44:22;1.00;99.90
20929;DHT22;21895;47.072;15.132;2022-11-25T01:47:23;1.00;99.90
20929;DHT22;21895;47.072;15.132;2022-11-25T01:50:02;0.90;99.90
20929;DHT22;21895;47.072;15.132;2022-11-25T01:52:40;1.00;99.90
20929;DHT22;21895;47.072;15.132;2022-11-25T01:55:20;1.00;99.90
20929;DHT22;21895;47.072;15.132;2022-11-25T01:58:06;1.00;99.90
20929;DHT22;21895;47.072;15.132;2022-11-25T02:00:37;1.00;99.90
20929;DHT22;21895;47.072;15.132;2022-11-25T02:03:04;0.90;99.90
20929;DHT22;21895;47.072;15.132;2022-11-25T02:05:41;0.60;99.90
20929;DHT22;21895;47.072;15.132;2022-11-25T02:08:22;0.40;99.90
20929;DHT22;21895;47.072;15.132;2022-11-25T02:10:51;0.60;99.90
20929;DHT22;21895;47.072;15.132;2022-11-25T02:13:21;0.80;99.90
20929;DHT22;21895;47.072;15.132;2022-11-25T02:15:49;0.80;99.90
20929;DHT22;21895;47.072;15.132;2022-11-25T02:18:15;0.80;99.90
20929;DHT22;21895;47.072;15.132;2022-11-25T02:20:42;0.70;99.90
20929;DHT22;21895;47.072;15.132;2022-11-25T02:23:33;0.50;99.90
20929;DHT22;21895;47.072;15.132;2022-11-25T02:26:07;0.40;99.90
20929;DHT22;21895;47.072;15.132;2022-11-25T02:28:34;0.50;99.90
20929;DHT22;21895;47.072;15.132;2022-11-25T02:31:01;0.50;99.90
20929;DHT22;21895;47.072;15.132;2022-11-25T02:33:28;0.60;99.90
20929;DHT22;21895;47.072;15.132;2022-11-25T02:35:58;0.60;99.90
20929;DHT22;21895;47.072;15.132;2022-11-25T02:38:38;0.60;99.90
20929;DHT22;21895;47.072;15.132;2022-11-25T02:41:20;0.60;99.90
20929;DHT22;21895;47.072;15.132;2022-11-25T02:43:50;0.60;99.90
20929;DHT22;21895;47.072;15.132;2022-11-25T02:46:18;0.60;99.90
20929;DHT22;21895;47.072;15.132;2022-11-25T02:48:49;0.80;99.90
20929;DHT22;21895;47.072;15.132;2022-11-25T02:51:34;0.80;99.90
20929;DHT22;21895;47.072;15.132;2022-11-25T02:54:02;0.70;99.90
20929;DHT22;21895;47.072;15.132;2022-11-25T02:56:31;0.40;99.90
20929;DHT22;21895;47.072;15.132;2022-11-25T02:58:59;0.50;99.90
20929;DHT22;21895;47.072;15.132;2022-11-25T03:01:26;0.50;99.90
20929;DHT22;21895;47.072;15.132;2022-11-25T03:03:54;0.70;99.90
20929;DHT22;21895;47.072;15.132;2022-11-25T03:06:21;0.80;99.90
20929;DHT22;21895;47.072;15.132;2022-11-25T03:08:47;0.90;99.90
20929;DHT22;21895;47.072;15.132;2022-11-25T03:11:14;0.90;99.90
20929;DHT22;21895;47.072;15.132;2022-11-25T03:13:40;1.00;99.90
20929;DHT22;21895;47.072;15.132;2022-11-25T03:16:07;0.90;99.90
20929;DHT22;21895;47.072;15.132;2022-11-25T03:18:33;0.60;99.90
20929;DHT22;21895;47.072;15.132;2022-11-25T03:21:00;0.60;99.90
20929;DHT22;21895;47.072;15.132;2022-11-25T03:23:27;0.60;99.90
20929;DHT22;21895;47.072;15.132;2022-11-25T03:25:54;0.60;99.90
20929;DHT22;21895;47.072;15.132;2022-11-25T03:28:20;0.60;99.90
20929;DHT22;21895;47.072;15.132;2022-11-25T03:30:47;0.60;99.90
20929;DHT22;21895;47.072;15.132;2022-11-25T03:33:13;0.40;99.90
20929;DHT22;21895;47.072;15.132;2022-11-25T03:35:40;0.40;99.90
20929;DHT22;21895;47.072;15.132;2022-11-25T03:38:06;0.40;99.90
20929;DHT22;21895;47.072;15.132;2022-11-25T03:40:33;0.60;99.90
20929;DHT22;21895;47.072;15.132;2022-11-25T03:42:59;0.60;99.90
20929;DHT22;21895;47.072;15.132;2022-11-25T03:45:26;0.60;99.90
20929;DHT22;21895;47.072;15.132;2022-11-25T03:47:53;0.70;99.90
20929;DHT22;21895;47.072;15.132;2022-11-25T03:50:19;0.70;99.90
20929;DHT22;21895;47.072;15.132;2022-11-25T03:52:46;0.70;99.90
20929;DHT22;21895;47.072;15.132;2022-11-25T03:55:12;0.60;99.90
20929;DHT22;21895;47.072;15.132;2022-11-25T03:57:39;0.50;99.90
20929;DHT22;21895;47.072;15.132;2022-11-25T04:00:06;0.40;99.90
20929;DHT22;21895;47.072;15.132;2022-11-25T04:02:36;0.50;99.90
20929;DHT22;21895;47.072;15.132;2022-11-25T04:05:02;0.50;99.90
20929;DHT22;21895;47.072;15.132;2022-11-25T04:07:30;0.50;99.90
20929;DHT22;21895;47.072;15.132;2022-11-25T04:09:56;0.60;99.90
20929;DHT22;21895;47.072;15.132;2022-11-25T04:12:23;0.40;99.90
20929;DHT22;21895;47.072;15.132;2022-11-25T04:15:08;0.30;99.90
20929;DHT22;21895;47.072;15.132;2022-11-25T04:17:34;0.30;99.90
20929;DHT22;21895;47.072;15.132;2022-11-25T04:20:01;0.10;99.90
20929;DHT22;21895;47.072;15.132;2022-11-25T04:22:28;0.10;99.90
20929;DHT22;21895;47.072;15.132;2022-11-25T04:24:55;0.10;99.90
20929;DHT22;21895;47.072;15.132;2022-11-25T04:27:21;-0.20;99.90
20929;DHT22;21895;47.072;15.132;2022-11-25T04:29:48;-0.20;99.90
20929;DHT22;21895;47.072;15.132;2022-11-25T04:32:14;-0.10;99.90
20929;DHT22;21895;47.072;15.132;2022-11-25T04:34:41;-0.10;99.90
20929;DHT22;21895;47.072;15.132;2022-11-25T04:37:08;-0.10;99.90
20929;DHT22;21895;47.072;15.132;2022-11-25T04:39:34;0.00;99.90
20929;DHT22;21895;47.072;15.132;2022-11-25T04:42:01;0.10;99.90
20929;DHT22;21895;47.072;15.132;2022-11-25T04:45:34;-0.10;99.90
20929;DHT22;21895;47.072;15.132;2022-11-25T04:48:32;-0.20;99.90
20929;DHT22;21895;47.072;15.132;2022-11-25T04:50:58;-0.40;99.90
20929;DHT22;21895;47.072;15.132;2022-11-25T04:53:25;-0.40;99.90
20929;DHT22;21895;47.072;15.132;2022-11-25T04:55:51;0.00;99.90
20929;DHT22;21895;47.072;15.132;2022-11-25T04:58:18;0.30;99.90
20929;DHT22;21895;47.072;15.132;2022-11-25T05:02:20;0.40;99.90
20929;DHT22;21895;47.072;15.132;2022-11-25T05:04:51;0.20;99.90
20929;DHT22;21895;47.072;15.132;2022-11-25T05:07:20;0.10;99.90
20929;DHT22;21895;47.072;15.132;2022-11-25T05:09:47;0.00;99.90
20929;DHT22;21895;47.072;15.132;2022-11-25T05:12:19;0.00;99.90
20929;DHT22;21895;47.072;15.132;2022-11-25T05:14:48;0.00;99.90
20929;DHT22;21895;47.072;15.132;2022-11-25T05:17:20;0.00;99.90
20929;DHT22;21895;47.072;15.132;2022-11-25T05:19:48;0.00;99.90
20929;DHT22;21895;47.072;15.132;2022-11-25T05:22:18;-0.10;99.90
20929;DHT22;21895;47.072;15.132;2022-11-25T05:24:47;-0.30;99.90
20929;DHT22;21895;47.072;15.132;2022-11-25T05:27:14;-0.30;99.90
20929;DHT22;21895;47.072;15.132;2022-11-25T05:29:41;-0.40;99.90
20929;DHT22;21895;47.072;15.132;2022-11-25T05:32:08;-0.40;99.90
20929;DHT22;21895;47.072;15.132;2022-11-25T05:34:35;-0.40;99.90
20929;DHT22;21895;47.072;15.132;2022-11-25T05:37:03;-0.50;99.90
20929;DHT22;21895;47.072;15.132;2022-11-25T05:39:30;-0.50;99.90
20929;DHT22;21895;47.072;15.132;2022-11-25T05:41:56;-0.50;99.90
20929;DHT22;21895;47.072;15.132;2022-11-25T05:44:23;-0.50;99.90
20929;DHT22;21895;47.072;15.132;2022-11-25T05:46:50;-0.50;99.90
20929;DHT22;21895;47.072;15.132;2022-11-25T05:49:17;-0.30;99.90
20929;DHT22;21895;47.072;15.132;2022-11-25T05:51:44;-0.40;99.90
20929;DHT22;21895;47.072;15.132;2022-11-25T05:54:11;-0.80;99.90
20929;DHT22;21895;47.072;15.132;2022-11-25T05:56:39;-0.70;99.90
20929;DHT22;21895;47.072;15.132;2022-11-25T05:59:06;-0.80;99.90
20929;DHT22;21895;47.072;15.132;2022-11-25T06:01:32;-0.90;99.90
20929;DHT22;21895;47.072;15.132;2022-11-25T06:04:03;-0.80;99.90
20929;DHT22;21895;47.072;15.132;2022-11-25T06:06:30;-0.60;99.90
20929;DHT22;21895;47.072;15.132;2022-11-25T06:08:58;-0.70;99.90
20929;DHT22;21895;47.072;15.132;2022-11-25T06:11:25;-0.70;99.90
20929;DHT22;21895;47.072;15.132;2022-11-25T06:13:51;-0.50;99.90
20929;DHT22;21895;47.072;15.132;2022-11-25T06:16:20;-0.50;99.90
20929;DHT22;21895;47.072;15.132;2022-11-25T06:18:48;-0.60;99.90
20929;DHT22;21895;47.072;15.132;2022-11-25T06:21:15;-0.70;99.90
20929;DHT22;21895;47.072;15.132;2022-11-25T06:23:42;-0.90;99.90
20929;DHT22;21895;47.072;15.132;2022-11-25T06:26:21;-0.70;99.90
20929;DHT22;21895;47.072;15.132;2022-11-25T06:28:48;-0.60;99.90
20929;DHT22;21895;47.072;15.132;2022-11-25T06:31:21;-0.40;99.90
20929;DHT22;21895;47.072;15.132;2022-11-25T06:33:51;-0.60;99.90
20929;DHT22;21895;47.072;15.132;2022-11-25T06:36:19;-0.50;99.90
20929;DHT22;21895;47.072;15.132;2022-11-25T06:38:49;-0.40;99.90
20929;DHT22;21895;47.072;15.132;2022-11-25T06:41:17;-0.30;99.90
20929;DHT22;21895;47.072;15.132;2022-11-25T06:43:45;-0.30;99.90
20929;DHT22;21895;47.072;15.132;2022-11-25T06:46:14;-0.30;99.90
20929;DHT22;21895;47.072;15.132;2022-11-25T06:48:50;-0.10;99.90
20929;DHT22;21895;47.072;15.132;2022-11-25T06:51:17;0.00;99.90
20929;DHT22;21895;47.072;15.132;2022-11-25T06:53:45;0.10;99.90
20929;DHT22;21895;47.072;15.132;2022-11-25T06:56:14;0.10;99.90
20929;DHT22;21895;47.072;15.132;2022-11-25T06:58:43;0.00;99.90
20929;DHT22;21895;47.072;15.132;2022-11-25T07:01:25;0.20;99.90
20929;DHT22;21895;47.072;15.132;2022-11-25T07:03:57;0.20;99.90
20929;DHT22;21895;47.072;15.132;2022-11-25T07:06:29;0.20;99.90
20929;DHT22;21895;47.072;15.132;2022-11-25T07:08:56;0.30;99.90
20929;DHT22;21895;47.072;15.132;2022-11-25T07:11:26;0.60;99.90
20929;DHT22;21895;47.072;15.132;2022-11-25T07:13:59;0.70;99.90
20929;DHT22;21895;47.072;15.132;2022-11-25T07:16:27;0.80;99.90
20929;DHT22;21895;47.072;15.132;2022-11-25T07:18:55;1.00;99.90
20929;DHT22;21895;47.072;15.132;2022-11-25T07:21:24;1.20;99.90
20929;DHT22;21895;47.072;15.132;2022-11-25T07:23:51;1.40;99.90
20929;DHT22;21895;47.072;15.132;2022-11-25T07:26:24;1.60;99.90
20929;DHT22;21895;47.072;15.132;2022-11-25T07:28:53;1.80;99.90
20929;DHT22;21895;47.072;15.132;2022-11-25T07:31:28;2.00;99.90
20929;DHT22;21895;47.072;15.132;2022-11-25T07:34:14;2.20;99.90
20929;DHT22;21895;47.072;15.132;2022-11-25T07:36:43;2.30;99.90
20929;DHT22;21895;47.072;15.132;2022-11-25T07:39:12;2.30;99.90
20929;DHT22;21895;47.072;15.132;2022-11-25T07:41:40;2.40;99.90
20929;DHT22;21895;47.072;15.132;2022-11-25T07:44:08;2.50;99.90
20929;DHT22;21895;47.072;15.132;2022-11-25T07:46:40;2.60;99.90
20929;DHT22;21895;47.072;15.132;2022-11-25T07:49:14;2.70;99.90
20929;DHT22;21895;47.072;15.132;2022-11-25T07:51:50;2.70;99.90
20929;DHT22;21895;47.072;15.132;2022-11-25T07:54:21;2.70;99.90
20929;DHT22;21895;47.072;15.132;2022-11-25T07:56:48;2.80;99.90
20929;DHT22;21895;47.072;15.132;2022-11-25T07:59:20;2.90;99.90
20929;DHT22;21895;47.072;15.132;2022-11-25T08:01:48;3.10;99.90
20929;DHT22;21895;47.072;15.132;2022-11-25T08:04:17;3.10;99.90
20929;DHT22;21895;47.072;15.132;2022-11-25T08:06:48;3.20;99.90
20929;DHT22;21895;47.072;15.132;2022-11-25T08:09:18;3.40;99.90
20929;DHT22;21895;47.072;15.132;2022-11-25T08:11:47;3.50;99.90
20929;DHT22;21895;47.072;15.132;2022-11-25T08:14:15;3.60;99.90
20929;DHT22;21895;47.072;15.132;2022-11-25T08:16:42;3.70;99.90
20929;DHT22;21895;47.072;15.132;2022-11-25T08:19:12;3.80;99.90
20929;DHT22;21895;47.072;15.132;2022-11-25T08:21:40;4.00;99.90
20929;DHT22;21895;47.072;15.132;2022-11-25T08:24:07;4.20;99.90
20929;DHT22;21895;47.072;15.132;2022-11-25T08:26:39;4.30;99.90
20929;DHT22;21895;47.072;15.132;2022-11-25T08:29:06;4.40;99.90
20929;DHT22;21895;47.072;15.132;2022-11-25T08:31:36;4.50;99.90
20929;DHT22;21895;47.072;15.132;2022-11-25T08:34:04;4.70;99.90
20929;DHT22;21895;47.072;15.132;2022-11-25T08:36:33;4.80;99.90
20929;DHT22;21895;47.072;15.132;2022-11-25T08:39:03;5.00;99.90
20929;DHT22;21895;47.072;15.132;2022-11-25T08:41:54;5.00;99.90
20929;DHT22;21895;47.072;15.132;2022-11-25T08:44:21;5.20;99.90
20929;DHT22;21895;47.072;15.132;2022-11-25T08:46:48;5.30;99.90
20929;DHT22;21895;47.072;15.132;2022-11-25T08:49:14;5.40;99.90
20929;DHT22;21895;47.072;15.132;2022-11-25T08:51:42;5.50;99.90
20929;DHT22;21895;47.072;15.132;2022-11-25T08:54:08;5.60;99.90
20929;DHT22;21895;47.072;15.132;2022-11-25T08:56:35;5.60;99.90
20929;DHT22;21895;47.072;15.132;2022-11-25T08:59:02;5.70;99.90
20929;DHT22;21895;47.072;15.132;2022-11-25T09:01:29;5.70;99.90
20929;DHT22;21895;47.072;15.132;2022-11-25T09:03:56;5.80;99.90
20929;DHT22;21895;47.072;15.132;2022-11-25T09:06:25;5.80;99.90
20929;DHT22;21895;47.072;15.132;2022-11-25T09:08:57;5.90;99.90
20929;DHT22;21895;47.072;15.132;2022-11-25T09:11:24;5.90;99.90
20929;DHT22;21895;47.072;15.132;2022-11-25T09:13:51;6.10;99.90
20929;DHT22;21895;47.072;15.132;2022-11-25T09:16:18;6.20;99.90
20929;DHT22;21895;47.072;15.132;2022-11-25T09:18:45;6.30;99.90
20929;DHT22;21895;47.072;15.132;2022-11-25T09:21:18;6.40;99.90
20929;DHT22;21895;47.072;15.132;2022-11-25T09:23:44;6.60;99.90
20929;DHT22;21895;47.072;15.132;2022-11-25T09:26:26;6.70;99.90
20929;DHT22;21895;47.072;15.132;2022-11-25T09:28:55;6.70;99.90
20929;DHT22;21895;47.072;15.132;2022-11-25T09:31:22;6.80;99.90
20929;DHT22;21895;47.072;15.132;2022-11-25T09:33:49;7.00;99.90
20929;DHT22;21895;47.072;15.132;2022-11-25T09:36:16;7.10;99.90
20929;DHT22;21895;47.072;15.132;2022-11-25T09:38:44;7.20;99.90
20929;DHT22;21895;47.072;15.132;2022-11-25T09:41:52;7.30;99.90
20929;DHT22;21895;47.072;15.132;2022-11-25T09:49:55;7.40;99.90
20929;DHT22;21895;47.072;15.132;2022-11-25T09:53:02;7.50;99.90
20929;DHT22;21895;47.072;15.132;2022-11-25T09:55:41;7.70;99.90
20929;DHT22;21895;47.072;15.132;2022-11-25T09:58:34;7.80;99.90
20929;DHT22;21895;47.072;15.132;2022-11-25T10:01:12;7.90;99.90
20929;DHT22;21895;47.072;15.132;2022-11-25T10:04:09;8.00;99.90
20929;DHT22;21895;47.072;15.132;2022-11-25T10:06:45;8.10;99.90
20929;DHT22;21895;47.072;15.132;2022-11-25T10:09:26;8.30;99.90
20929;DHT22;21895;47.072;15.132;2022-11-25T10:12:27;8.30;99.90
20929;DHT22;21895;47.072;15.132;2022-11-25T10:15:10;8.40;99.90
20929;DHT22;21895;47.072;15.132;2022-11-25T10:17:45;8.40;99.90
20929;DHT22;21895;47.072;15.132;2022-11-25T10:21:15;8.50;99.90
20929;DHT22;21895;47.072;15.132;2022-11-25T10:23:42;8.60;99.10
20929;DHT22;21895;47.072;15.132;2022-11-25T10:26:20;8.60;99.00
20929;DHT22;21895;47.072;15.132;2022-11-25T10:29:45;8.70;98.70
20929;DHT22;21895;47.072;15.132;2022-11-25T10:32:24;8.80;98.40
20929;DHT22;21895;47.072;15.132;2022-11-25T10:35:02;8.90;97.40
20929;DHT22;21895;47.072;15.132;2022-11-25T10:37:39;8.90;96.90
20929;DHT22;21895;47.072;15.132;2022-11-25T10:40:15;8.90;96.90
20929;DHT22;21895;47.072;15.132;2022-11-25T10:42:42;8.90;97.30
20929;DHT22;21895;47.072;15.132;2022-11-25T10:45:09;9.00;96.80
20929;DHT22;21895;47.072;15.132;2022-11-25T10:52:45;9.10;96.50
20929;DHT22;21895;47.072;15.132;2022-11-25T10:56:02;9.40;95.90
20929;DHT22;21895;47.072;15.132;2022-11-25T10:58:38;9.40;95.70
20929;DHT22;21895;47.072;15.132;2022-11-25T11:01:23;9.40;95.80
20929;DHT22;21895;47.072;15.132;2022-11-25T11:04:12;9.40;95.20
20929;DHT22;21895;47.072;15.132;2022-11-25T11:06:46;9.50;95.10
20929;DHT22;21895;47.072;15.132;2022-11-25T11:09:35;9.50;95.20
20929;DHT22;21895;47.072;15.132;2022-11-25T11:12:22;9.50;94.70
20929;DHT22;21895;47.072;15.132;2022-11-25T11:17:45;9.60;94.80
20929;DHT22;21895;47.072;15.132;2022-11-25T11:20:28;9.60;94.90
20929;DHT22;21895;47.072;15.132;2022-11-25T11:23:17;9.60;94.60
20929;DHT22;21895;47.072;15.132;2022-11-25T11:26:05;9.70;94.50
20929;DHT22;21895;47.072;15.132;2022-11-25T11:28:39;9.70;94.60
20929;DHT22;21895;47.072;15.132;2022-11-25T11:31:21;9.80;94.60
20929;DHT22;21895;47.072;15.132;2022-11-25T11:40:41;9.80;95.00
20929;DHT22;21895;47.072;15.132;2022-11-25T11:43:51;9.90;95.00
20929;DHT22;21895;47.072;15.132;2022-11-25T11:53:35;10.00;94.70
20929;DHT22;21895;47.072;15.132;2022-11-25T11:56:33;10.20;95.00
20929;DHT22;21895;47.072;15.132;2022-11-25T12:03:37;10.30;95.40
20929;DHT22;21895;47.072;15.132;2022-11-25T12:06:09;10.20;95.70
20929;DHT22;21895;47.072;15.132;2022-11-25T12:08:56;10.00;95.50
20929;DHT22;21895;47.072;15.132;2022-11-25T12:11:35;9.80;96.20
20929;DHT22;21895;47.072;15.132;2022-11-25T12:15:16;9.60;96.40
20929;DHT22;21895;47.072;15.132;2022-11-25T12:18:01;9.40;96.80
20929;DHT22;21895;47.072;15.132;2022-11-25T12:27:27;9.60;96.50
20929;DHT22;21895;47.072;15.132;2022-11-25T12:33:21;9.70;96.40
20929;DHT22;21895;47.072;15.132;2022-11-25T12:36:13;9.90;96.10
20929;DHT22;21895;47.072;15.132;2022-11-25T12:42:00;9.90;96.20
20929;DHT22;21895;47.072;15.132;2022-11-25T12:44:32;10.00;96.40
20929;DHT22;21895;47.072;15.132;2022-11-25T12:47:11;10.00;96.60
20929;DHT22;21895;47.072;15.132;2022-11-25T12:49:41;10.00;96.60
20929;DHT22;21895;47.072;15.132;2022-11-25T12:52:28;10.20;95.90
20929;DHT22;21895;47.072;15.132;2022-11-25T12:56:54;10.10;95.90
20929;DHT22;21895;47.072;15.132;2022-11-25T13:01:40;10.00;95.70
20929;DHT22;21895;47.072;15.132;2022-11-25T13:14:18;10.00;95.90
20929;DHT22;21895;47.072;15.132;2022-11-25T13:17:20;10.00;95.70
20929;DHT22;21895;47.072;15.132;2022-11-25T13:19:48;10.00;95.40
20929;DHT22;21895;47.072;15.132;2022-11-25T13:22:36;10.00;95.70
20929;DHT22;21895;47.072;15.132;2022-11-25T13:25:03;9.90;95.90
20929;DHT22;21895;47.072;15.132;2022-11-25T13:27:56;9.80;95.80
20929;DHT22;21895;47.072;15.132;2022-11-25T13:30:37;9.70;96.00
20929;DHT22;21895;47.072;15.132;2022-11-25T13:39:04;9.40;96.20
20929;DHT22;21895;47.072;15.132;2022-11-25T13:41:45;9.30;95.90
20929;DHT22;21895;47.072;15.132;2022-11-25T13:44:31;9.40;95.70
20929;DHT22;21895;47.072;15.132;2022-11-25T13:48:53;9.20;96.20
20929;DHT22;21895;47.072;15.132;2022-11-25T13:51:20;9.00;96.60
20929;DHT22;21895;47.072;15.132;2022-11-25T13:54:04;9.00;96.80
20929;DHT22;21895;47.072;15.132;2022-11-25T13:56:36;8.90;97.10
20929;DHT22;21895;47.072;15.132;2022-11-25T14:01:41;8.90;97.20
20929;DHT22;21895;47.072;15.132;2022-11-25T14:04:37;9.00;97.50
20929;DHT22;21895;47.072;15.132;2022-11-25T14:13:29;9.20;96.90
20929;DHT22;21895;47.072;15.132;2022-11-25T14:16:45;9.30;96.70
20929;DHT22;21895;47.072;15.132;2022-11-25T14:22:55;9.20;96.40
20929;DHT22;21895;47.072;15.132;2022-11-25T14:25:53;9.10;96.80
20929;DHT22;21895;47.072;15.132;2022-11-25T14:29:19;8.90;97.00
20929;DHT22;21895;47.072;15.132;2022-11-25T14:31:53;8.80;97.60
20929;DHT22;21895;47.072;15.132;2022-11-25T14:34:41;8.60;98.10
20929;DHT22;21895;47.072;15.132;2022-11-25T14:37:26;8.40;98.40
20929;DHT22;21895;47.072;15.132;2022-11-25T14:40:17;8.20;98.60
20929;DHT22;21895;47.072;15.132;2022-11-25T14:42:51;8.00;98.90
20929;DHT22;21895;47.072;15.132;2022-11-25T14:45:29;7.80;99.10
20929;DHT22;21895;47.072;15.132;2022-11-25T14:48:20;7.70;99.50
20929;DHT22;21895;47.072;15.132;2022-11-25T14:51:04;7.50;99.90
20929;DHT22;21895;47.072;15.132;2022-11-25T14:53:41;7.60;99.90
20929;DHT22;21895;47.072;15.132;2022-11-25T14:56:16;7.70;99.90
20929;DHT22;21895;47.072;15.132;2022-11-25T14:58:57;7.60;99.90
20929;DHT22;21895;47.072;15.132;2022-11-25T15:01:32;7.50;99.90
20929;DHT22;21895;47.072;15.132;2022-11-25T15:04:33;7.30;99.90
20929;DHT22;21895;47.072;15.132;2022-11-25T15:07:20;7.10;99.90
20929;DHT22;21895;47.072;15.132;2022-11-25T15:09:55;6.90;99.90
20929;DHT22;21895;47.072;15.132;2022-11-25T15:12:24;6.70;99.90
20929;DHT22;21895;47.072;15.132;2022-11-25T15:14:56;6.50;99.90
20929;DHT22;21895;47.072;15.132;2022-11-25T15:17:29;6.40;99.90
20929;DHT22;21895;47.072;15.132;2022-11-25T15:20:09;6.30;99.90
20929;DHT22;21895;47.072;15.132;2022-11-25T15:22:38;6.50;99.90
20929;DHT22;21895;47.072;15.132;2022-11-25T15:25:14;6.40;99.90
20929;DHT22;21895;47.072;15.132;2022-11-25T15:27:47;6.30;99.90
20929;DHT22;21895;47.072;15.132;2022-11-25T15:32:55;6.20;99.90
20929;DHT22;21895;47.072;15.132;2022-11-25T15:35:25;6.10;99.90
20929;DHT22;21895;47.072;15.132;2022-11-25T15:37:52;5.90;99.90
20929;DHT22;21895;47.072;15.132;2022-11-25T15:42:14;5.80;99.90
20929;DHT22;21895;47.072;15.132;2022-11-25T15:44:57;5.80;99.90
20929;DHT22;21895;47.072;15.132;2022-11-25T15:47:34;5.80;99.90
20929;DHT22;21895;47.072;15.132;2022-11-25T15:50:22;5.70;99.90
20929;DHT22;21895;47.072;15.132;2022-11-25T15:52:53;5.50;99.90
20929;DHT22;21895;47.072;15.132;2022-11-25T15:55:36;5.30;99.90
20929;DHT22;21895;47.072;15.132;2022-11-25T16:01:18;5.00;99.90
20929;DHT22;21895;47.072;15.132;2022-11-25T16:03:48;5.00;99.90
20929;DHT22;21895;47.072;15.132;2022-11-25T16:06:26;5.00;99.90
20929;DHT22;21895;47.072;15.132;2022-11-25T16:09:00;5.00;99.90
20929;DHT22;21895;47.072;15.132;2022-11-25T16:11:29;5.10;99.90
20929;DHT22;21895;47.072;15.132;2022-11-25T16:14:26;5.20;99.90
20929;DHT22;21895;47.072;15.132;2022-11-25T16:17:01;5.30;99.90
20929;DHT22;21895;47.072;15.132;2022-11-25T16:19:38;5.40;99.90
20929;DHT22;21895;47.072;15.132;2022-11-25T16:22:18;5.30;99.90
20929;DHT22;21895;47.072;15.132;2022-11-25T16:24:52;5.30;99.90
20929;DHT22;21895;47.072;15.132;2022-11-25T16:27:28;5.40;99.90
20929;DHT22;21895;47.072;15.132;2022-11-25T16:29:57;5.40;99.90
20929;DHT22;21895;47.072;15.132;2022-11-25T16:32:36;5.40;99.90
20929;DHT22;21895;47.072;15.132;2022-11-25T16:35:16;5.40;99.90
20929;DHT22;21895;47.072;15.132;2022-11-25T16:37:45;5.50;99.90
20929;DHT22;21895;47.072;15.132;2022-11-25T16:40:15;5.50;99.90
20929;DHT22;21895;47.072;15.132;2022-11-25T16:42:48;5.40;99.90
20929;DHT22;21895;47.072;15.132;2022-11-25T16:45:23;5.40;99.90
20929;DHT22;21895;47.072;15.132;2022-11-25T16:47:52;5.40;99.90
20929;DHT22;21895;47.072;15.132;2022-11-25T16:50:19;5.30;99.90
20929;DHT22;21895;47.072;15.132;2022-11-25T16:52:47;5.30;99.90
20929;DHT22;21895;47.072;15.132;2022-11-25T16:55:14;5.40;99.90
20929;DHT22;21895;47.072;15.132;2022-11-25T16:57:43;5.40;99.90
20929;DHT22;21895;47.072;15.132;2022-11-25T17:00:13;5.30;99.90
20929;DHT22;21895;47.072;15.132;2022-11-25T17:02:41;5.20;99.90
20929;DHT22;21895;47.072;15.132;2022-11-25T17:07:54;5.20;99.90
20929;DHT22;21895;47.072;15.132;2022-11-25T17:10:21;5.20;99.90
20929;DHT22;21895;47.072;15.132;2022-11-25T17:12:48;5.30;99.90
20929;DHT22;21895;47.072;15.132;2022-11-25T17:15:18;5.40;99.90
20929;DHT22;21895;47.072;15.132;2022-11-25T17:17:48;5.30;99.90
20929;DHT22;21895;47.072;15.132;2022-11-25T17:20:21;5.20;99.90
20929;DHT22;21895;47.072;15.132;2022-11-25T17:22:50;5.20;99.90
20929;DHT22;21895;47.072;15.132;2022-11-25T17:25:17;5.10;99.90
20929;DHT22;21895;47.072;15.132;2022-11-25T17:27:46;5.00;99.90
20929;DHT22;21895;47.072;15.132;2022-11-25T17:30:22;4.80;99.90
20929;DHT22;21895;47.072;15.132;2022-11-25T17:33:02;4.70;99.90
20929;DHT22;21895;47.072;15.132;2022-11-25T17:35:31;4.50;99.90
20929;DHT22;21895;47.072;15.132;2022-11-25T17:37:59;4.50;99.90
20929;DHT22;21895;47.072;15.132;2022-11-25T17:40:26;4.70;99.90